Time;durP1;ratioP1;P1;durP2;ratioP2;P2;SDS_P1;SDS_P2;PMS_P1;PMS_P2;Temp;Humidity;BMP_temperature;BMP_pressure;BME280_temperature;BME280_humidity;BME280_pressure;Samples;Min_cycle;Max_cycle;Signal;HPM_P1;HPM_P2
2023/11/30 00:02:07;;;;;;;11.30;7.47;;;11.80;55.40;;;;;;5054389;28;20494;-76
2023/11/30 00:04:35;;;;;;;12.10;7.63;;;11.80;55.40;;;;;;5051317;28;20451;-77
2023/11/30 00:07:03;;;;;;;14.03;7.63;;;11.80;55.50;;;;;;5047380;28;20532;-79
2023/11/30 00:09:31;;;;;;;10.17;7.67;;;11.80;55.50;;;;;;5049538;28;20492;-77
2023/11/30 00:12:00;;;;;;;9.43;7.07;;;11.80;55.40;;;;;;5053584;28;20473;-78
2023/11/30 00:14:28;;;;;;;10.83;7.23;;;11.70;55.40;;;;;;5051324;28;20543;-77
2023/11/30 00:16:55;;;;;;;11.80;7.30;;;11.70;55.50;;;;;;5053303;28;20521;-78
2023/11/30 00:19:23;;;;;;;13.07;8.20;;;11.70;55.60;;;;;;5053942;28;20430;-75
2023/11/30 00:21:51;;;;;;;10.30;6.80;;;11.70;55.40;;;;;;5047705;28;20463;-78
2023/11/30 00:24:19;;;;;;;10.03;7.20;;;11.70;55.40;;;;;;5052747;28;20469;-78
2023/11/30 00:26:47;;;;;;;10.47;7.30;;;11.70;55.40;;;;;;5054097;28;20443;-78
2023/11/30 00:29:16;;;;;;;9.67;7.13;;;11.70;55.40;;;;;;5052932;28;20446;-76
2023/11/30 00:31:44;;;;;;;10.40;7.30;;;11.70;55.40;;;;;;5051321;28;20431;-78
2023/11/30 00:34:12;;;;;;;9.03;7.03;;;11.70;55.40;;;;;;5053083;28;20462;-77
2023/11/30 00:36:40;;;;;;;9.50;7.07;;;11.70;55.30;;;;;;5045614;28;20500;-79
2023/11/30 00:39:08;;;;;;;10.77;7.23;;;11.70;55.40;;;;;;5049428;28;20435;-80
2023/11/30 00:41:36;;;;;;;9.20;6.80;;;11.70;55.40;;;;;;5048055;28;20479;-79
2023/11/30 00:44:04;;;;;;;13.20;7.17;;;11.60;55.30;;;;;;5055646;28;20482;-77
2023/11/30 00:46:34;;;;;;;12.50;7.47;;;11.60;55.30;;;;;;5048689;28;20504;-79
2023/11/30 00:49:02;;;;;;;9.93;7.00;;;11.60;55.30;;;;;;5044797;28;20446;-77
2023/11/30 00:51:30;;;;;;;9.73;6.77;;;11.60;55.30;;;;;;5052349;28;20548;-78
2023/11/30 00:53:58;;;;;;;10.73;6.77;;;11.60;55.30;;;;;;5052605;28;20577;-79
2023/11/30 00:56:26;;;;;;;10.77;6.73;;;11.60;55.30;;;;;;5051297;28;20447;-78
2023/11/30 00:58:54;;;;;;;7.70;6.10;;;11.60;55.30;;;;;;5053426;28;21001;-80
2023/11/30 01:01:22;;;;;;;8.20;6.37;;;11.60;55.40;;;;;;5054424;28;20505;-78
2023/11/30 01:03:51;;;;;;;10.30;6.90;;;11.60;55.40;;;;;;5048778;28;20466;-79
2023/11/30 01:06:19;;;;;;;8.40;6.33;;;11.60;55.30;;;;;;5050331;28;20453;-79
2023/11/30 01:08:47;;;;;;;9.20;6.50;;;11.50;55.00;;;;;;5048724;28;20526;-79
2023/11/30 01:11:15;;;;;;;7.97;6.00;;;11.50;55.20;;;;;;5040921;28;20446;-80
2023/11/30 01:13:44;;;;;;;9.27;6.37;;;11.50;55.20;;;;;;5048643;28;20466;-79
2023/11/30 01:16:12;;;;;;;8.67;6.80;;;11.50;55.30;;;;;;5041191;28;20460;-77
2023/11/30 01:18:40;;;;;;;9.30;6.33;;;11.50;55.20;;;;;;5048039;28;20517;-79
2023/11/30 01:21:10;;;;;;;11.43;6.10;;;11.50;55.20;;;;;;5049795;28;20455;-79
2023/11/30 01:23:38;;;;;;;10.63;6.07;;;11.50;55.20;;;;;;5052082;28;20482;-78
2023/11/30 01:26:06;;;;;;;12.10;6.70;;;11.50;55.20;;;;;;5046628;28;20432;-78
2023/11/30 01:28:34;;;;;;;9.73;6.47;;;11.50;55.20;;;;;;5052225;28;20446;-79
2023/11/30 01:31:02;;;;;;;9.47;6.37;;;11.50;55.20;;;;;;5047356;28;20451;-76
2023/11/30 01:33:30;;;;;;;11.77;6.80;;;11.50;55.20;;;;;;5044000;28;20472;-79
2023/11/30 01:35:58;;;;;;;6.80;5.80;;;11.50;55.20;;;;;;5045444;28;20438;-79
2023/11/30 01:38:28;;;;;;;10.07;6.53;;;11.50;55.30;;;;;;5044695;28;20454;-76
2023/11/30 01:40:56;;;;;;;9.47;6.50;;;11.50;55.20;;;;;;5049700;28;20504;-78
2023/11/30 01:43:26;;;;;;;13.70;6.80;;;11.40;55.10;;;;;;5049173;28;20549;-76
2023/11/30 01:45:54;;;;;;;8.47;6.00;;;11.40;55.10;;;;;;5051916;28;20538;-78
2023/11/30 01:48:31;;;;;;;9.83;5.90;;;11.40;54.90;;;;;;5052023;28;20496;-78
2023/11/30 01:50:59;;;;;;;8.83;6.20;;;11.40;55.10;;;;;;5051742;28;20434;-78
2023/11/30 01:53:28;;;;;;;6.70;5.87;;;11.40;55.20;;;;;;5046196;28;20459;-79
2023/11/30 01:55:56;;;;;;;9.10;6.30;;;11.40;55.10;;;;;;5047356;28;20492;-77
2023/11/30 01:58:24;;;;;;;7.57;5.80;;;11.40;55.20;;;;;;5048345;28;20442;-79
2023/11/30 02:00:52;;;;;;;7.17;5.70;;;11.40;55.20;;;;;;5048676;28;20471;-80
2023/11/30 02:03:20;;;;;;;8.83;6.10;;;11.40;55.20;;;;;;5040499;28;20567;-78
2023/11/30 02:05:52;;;;;;;8.23;6.10;;;11.40;55.20;;;;;;5046732;28;20432;-79
2023/11/30 02:08:20;;;;;;;7.10;5.40;;;11.30;55.10;;;;;;5042051;28;20443;-79
2023/11/30 02:10:50;;;;;;;9.07;6.07;;;11.30;55.00;;;;;;5042989;28;20467;-79
2023/11/30 02:13:18;;;;;;;7.10;5.73;;;11.30;55.30;;;;;;5044112;28;20991;-76
2023/11/30 02:15:46;;;;;;;8.70;5.97;;;11.30;55.30;;;;;;5042490;28;20516;-79
2023/11/30 02:18:14;;;;;;;8.40;5.80;;;11.40;55.50;;;;;;5047942;28;20525;-79
2023/11/30 02:20:42;;;;;;;8.33;5.53;;;11.40;55.40;;;;;;5051337;28;20514;-79
2023/11/30 02:23:12;;;;;;;7.30;5.80;;;11.40;55.60;;;;;;5052118;28;20557;-77
2023/11/30 02:25:39;;;;;;;6.93;5.97;;;11.40;55.40;;;;;;5052587;28;20525;-79
2023/11/30 02:28:07;;;;;;;7.73;5.40;;;11.40;55.60;;;;;;5052002;28;20443;-78
2023/11/30 02:30:38;;;;;;;7.50;5.53;;;11.40;55.60;;;;;;5052192;28;20521;-78
2023/11/30 02:33:06;;;;;;;7.33;5.73;;;11.40;55.60;;;;;;5053473;28;20451;-78
2023/11/30 02:35:35;;;;;;;7.10;5.53;;;11.40;55.70;;;;;;5044253;28;20498;-79
2023/11/30 02:38:03;;;;;;;6.30;5.40;;;11.40;55.80;;;;;;5047098;28;20467;-79
2023/11/30 02:40:33;;;;;;;6.53;5.30;;;11.40;55.80;;;;;;5043661;28;20474;-79
2023/11/30 02:43:00;;;;;;;7.00;5.30;;;11.40;55.70;;;;;;5051747;28;20558;-79
2023/11/30 02:45:28;;;;;;;7.77;5.30;;;11.40;55.80;;;;;;5043499;28;20475;-78
2023/11/30 02:47:56;;;;;;;8.70;5.60;;;11.40;55.80;;;;;;5043526;28;20450;-78
2023/11/30 02:50:25;;;;;;;7.47;5.30;;;11.40;55.80;;;;;;5036892;28;20479;-78
2023/11/30 02:52:53;;;;;;;6.57;5.27;;;11.40;55.90;;;;;;5048424;28;20512;-78
2023/11/30 02:55:21;;;;;;;6.67;5.07;;;11.40;55.80;;;;;;5040100;28;20443;-79
2023/11/30 02:57:51;;;;;;;7.67;5.33;;;11.40;56.00;;;;;;5047313;28;20531;-79
2023/11/30 03:00:19;;;;;;;6.50;5.20;;;11.40;55.90;;;;;;5044125;28;20535;-79
2023/11/30 03:02:48;;;;;;;8.17;5.60;;;11.40;56.10;;;;;;5039124;28;20474;-79
2023/11/30 03:05:16;;;;;;;6.67;5.30;;;11.40;56.10;;;;;;5043784;28;20463;-79
2023/11/30 03:07:43;;;;;;;5.90;5.00;;;11.50;56.10;;;;;;5048663;28;20529;-79
2023/11/30 03:10:12;;;;;;;5.63;4.93;;;11.40;56.20;;;;;;5046116;28;20526;-77
2023/11/30 03:12:40;;;;;;;6.20;5.00;;;11.40;56.30;;;;;;5043249;28;20477;-79
2023/11/30 03:15:12;;;;;;;6.13;5.53;;;11.40;56.20;;;;;;5051562;28;20535;-79
2023/11/30 03:17:40;;;;;;;6.03;5.10;;;11.40;56.20;;;;;;5043318;28;20438;-78
2023/11/30 03:20:09;;;;;;;5.43;4.60;;;11.40;56.20;;;;;;5046478;28;20427;-77
2023/11/30 03:22:37;;;;;;;6.57;5.13;;;11.50;56.40;;;;;;5039206;28;20439;-78
2023/11/30 03:25:06;;;;;;;7.77;5.20;;;11.40;56.30;;;;;;5051145;28;20449;-79
2023/11/30 03:27:34;;;;;;;6.87;4.67;;;11.50;56.40;;;;;;5043654;28;20525;-79
2023/11/30 03:30:02;;;;;;;5.53;4.90;;;11.50;56.40;;;;;;5051213;28;20493;-78
2023/11/30 03:32:31;;;;;;;7.77;5.43;;;11.50;56.40;;;;;;5051432;28;20439;-79
2023/11/30 03:34:59;;;;;;;7.03;5.10;;;11.50;56.60;;;;;;5054697;28;20430;-79
2023/11/30 03:37:27;;;;;;;6.83;4.83;;;11.50;56.50;;;;;;5047102;28;20454;-79
2023/11/30 03:39:55;;;;;;;7.63;5.37;;;11.40;56.70;;;;;;5043794;28;20520;-77
2023/11/30 03:42:23;;;;;;;8.00;5.07;;;11.50;56.70;;;;;;5050608;28;20521;-78
2023/11/30 03:44:51;;;;;;;4.83;4.40;;;11.50;56.70;;;;;;5044006;28;20469;-80
2023/11/30 03:47:19;;;;;;;7.07;4.40;;;11.50;56.70;;;;;;5042100;28;20439;-78
2023/11/30 03:49:49;;;;;;;5.87;4.63;;;11.50;56.80;;;;;;5035206;28;20531;-78
2023/11/30 03:52:16;;;;;;;5.83;4.83;;;11.50;56.70;;;;;;5049384;28;20516;-78
2023/11/30 03:54:44;;;;;;;5.13;4.63;;;11.50;56.70;;;;;;5038967;28;20545;-79
2023/11/30 03:57:12;;;;;;;5.83;4.47;;;11.50;56.80;;;;;;5049370;28;20435;-79
2023/11/30 03:59:40;;;;;;;5.07;4.43;;;11.50;56.70;;;;;;5051962;28;20461;-78
2023/11/30 04:02:08;;;;;;;4.83;4.17;;;11.50;56.80;;;;;;5054059;28;20450;-78
2023/11/30 04:04:37;;;;;;;4.93;4.43;;;11.50;56.90;;;;;;5054540;28;20475;-77
2023/11/30 04:07:07;;;;;;;4.80;4.23;;;11.50;57.00;;;;;;5055302;28;20455;-79
2023/11/30 04:09:37;;;;;;;4.90;4.40;;;11.50;56.90;;;;;;5039444;28;20471;-79
2023/11/30 04:12:05;;;;;;;5.80;4.33;;;11.50;56.80;;;;;;5035823;28;20466;-78
2023/11/30 04:14:33;;;;;;;4.80;4.20;;;11.50;57.00;;;;;;5042732;28;20447;-77
2023/11/30 04:17:01;;;;;;;5.90;4.50;;;11.50;56.80;;;;;;5048314;28;20940;-79
2023/11/30 04:19:31;;;;;;;5.50;4.60;;;11.50;57.00;;;;;;5054752;28;20426;-79
2023/11/30 04:21:59;;;;;;;7.23;4.37;;;11.50;57.00;;;;;;5045905;28;20530;-78
2023/11/30 04:24:28;;;;;;;5.87;4.30;;;11.50;57.00;;;;;;5040953;28;20501;-77
2023/11/30 04:26:56;;;;;;;5.70;4.57;;;11.50;56.90;;;;;;5042760;28;20455;-80
2023/11/30 04:29:24;;;;;;;3.90;3.60;;;11.50;57.20;;;;;;5043069;28;20443;-79
2023/11/30 04:31:51;;;;;;;4.67;4.23;;;11.50;57.10;;;;;;5050789;28;20527;-79
2023/11/30 04:34:19;;;;;;;5.50;4.50;;;11.50;57.00;;;;;;5054155;28;20454;-79
2023/11/30 04:36:47;;;;;;;5.80;4.50;;;11.50;57.20;;;;;;5046699;28;20447;-78
2023/11/30 04:39:15;;;;;;;5.87;4.50;;;11.50;57.20;;;;;;5048683;28;20493;-76
2023/11/30 04:41:44;;;;;;;4.40;4.00;;;11.50;57.10;;;;;;5049227;28;20443;-78
2023/11/30 04:44:12;;;;;;;5.20;4.70;;;11.50;57.00;;;;;;5045317;28;20561;-78
2023/11/30 04:46:40;;;;;;;4.90;4.30;;;11.50;57.00;;;;;;5044270;28;20457;-78
2023/11/30 04:49:09;;;;;;;4.93;4.27;;;11.50;56.90;;;;;;5045682;28;20453;-78
2023/11/30 04:51:37;;;;;;;4.03;3.73;;;11.50;56.90;;;;;;5045762;28;20535;-78
2023/11/30 04:54:05;;;;;;;4.70;4.30;;;11.50;56.90;;;;;;5043119;28;20454;-78
2023/11/30 04:56:33;;;;;;;4.30;3.90;;;11.50;56.90;;;;;;5048595;28;20435;-79
2023/11/30 04:59:03;;;;;;;4.97;4.33;;;11.50;57.00;;;;;;5054906;28;20435;-79
2023/11/30 05:01:31;;;;;;;4.43;4.03;;;11.50;56.90;;;;;;5054917;28;20469;-78
2023/11/30 05:04:03;;;;;;;5.10;4.27;;;11.50;57.00;;;;;;5050720;28;20467;-78
2023/11/30 05:06:31;;;;;;;4.20;3.80;;;11.40;56.80;;;;;;5042698;28;20431;-79
2023/11/30 05:08:59;;;;;;;6.53;4.27;;;11.40;57.00;;;;;;5046553;28;20843;-78
2023/11/30 05:11:27;;;;;;;5.53;4.10;;;11.40;56.90;;;;;;5047169;28;20450;-78
2023/11/30 05:13:55;;;;;;;5.17;4.10;;;11.40;56.80;;;;;;5055082;28;20493;-79
2023/11/30 05:16:24;;;;;;;4.77;4.27;;;11.50;57.20;;;;;;5050163;28;20442;-80
2023/11/30 05:18:52;;;;;;;4.93;4.47;;;11.40;56.90;;;;;;5042587;28;20461;-78
2023/11/30 05:21:20;;;;;;;4.70;4.30;;;11.40;56.80;;;;;;5053649;28;20481;-77
2023/11/30 05:23:48;;;;;;;6.07;4.23;;;11.40;56.90;;;;;;5050526;28;20705;-78
2023/11/30 05:26:16;;;;;;;4.90;4.33;;;11.40;56.90;;;;;;5053713;28;20477;-78
2023/11/30 05:28:44;;;;;;;4.50;4.10;;;11.40;56.70;;;;;;5044692;28;20521;-77
2023/11/30 05:31:12;;;;;;;5.10;4.43;;;11.40;56.80;;;;;;5040969;28;20531;-77
2023/11/30 05:33:41;;;;;;;7.13;4.50;;;11.40;56.80;;;;;;5047128;28;20469;-76
2023/11/30 05:36:10;;;;;;;7.37;4.40;;;11.40;56.80;;;;;;5041119;28;20455;-74
2023/11/30 05:38:38;;;;;;;5.23;4.20;;;11.40;56.70;;;;;;5048852;28;20526;-77
2023/11/30 05:41:06;;;;;;;4.37;3.97;;;11.40;56.90;;;;;;5053099;28;20462;-77
2023/11/30 05:43:35;;;;;;;4.70;4.10;;;11.40;56.90;;;;;;5050269;28;20540;-78
2023/11/30 05:46:06;;;;;;;4.97;3.93;;;11.30;56.70;;;;;;5052915;28;20474;-79
2023/11/30 05:48:34;;;;;;;4.37;3.90;;;11.30;56.70;;;;;;5052301;28;20459;-78
2023/11/30 05:51:04;;;;;;;4.20;3.77;;;11.40;56.90;;;;;;5033411;28;20505;-79
2023/11/30 05:53:32;;;;;;;4.87;4.13;;;11.40;56.80;;;;;;5047465;28;20493;-78
2023/11/30 05:56:00;;;;;;;5.00;4.40;;;11.30;56.70;;;;;;5042268;28;20439;-77
2023/11/30 05:58:28;;;;;;;6.00;4.07;;;11.40;56.80;;;;;;5052713;28;20996;-79
2023/11/30 06:00:57;;;;;;;5.00;3.90;;;11.30;56.60;;;;;;5051443;28;20445;-78
2023/11/30 06:03:25;;;;;;;4.77;3.97;;;11.30;56.80;;;;;;5039763;28;20461;-78
2023/11/30 06:05:53;;;;;;;4.93;4.37;;;11.40;56.80;;;;;;5043113;28;20475;-78
2023/11/30 06:08:24;;;;;;;6.70;4.60;;;11.30;56.70;;;;;;5047675;28;20522;-77
2023/11/30 06:10:52;;;;;;;4.23;3.83;;;11.40;56.80;;;;;;5049606;28;20478;-79
2023/11/30 06:13:22;;;;;;;4.20;3.80;;;11.30;56.70;;;;;;5043133;28;20460;-78
2023/11/30 06:15:52;;;;;;;5.00;4.40;;;11.30;56.50;;;;;;5052356;28;20500;-78
2023/11/30 06:18:20;;;;;;;3.80;3.50;;;11.30;56.70;;;;;;5052270;28;20462;-78
2023/11/30 06:20:47;;;;;;;4.87;4.33;;;11.30;56.70;;;;;;5043492;28;20435;-78
2023/11/30 06:23:16;;;;;;;4.37;3.97;;;11.30;56.50;;;;;;5051344;28;20516;-78
2023/11/30 06:25:45;;;;;;;4.00;3.67;;;11.30;56.60;;;;;;5045881;28;20501;-78
2023/11/30 06:28:13;;;;;;;4.83;4.13;;;11.30;56.60;;;;;;5051878;28;20439;-79
2023/11/30 06:30:40;;;;;;;5.67;4.37;;;11.20;56.40;;;;;;5044952;28;20435;-79
2023/11/30 06:33:09;;;;;;;4.93;4.20;;;11.20;56.60;;;;;;5033993;28;20471;-78
2023/11/30 06:35:37;;;;;;;5.93;4.53;;;11.30;56.60;;;;;;5047474;28;20477;-78
2023/11/30 06:38:05;;;;;;;3.70;3.40;;;11.20;56.60;;;;;;5046384;28;20528;-79
2023/11/30 06:40:33;;;;;;;4.20;3.80;;;11.30;56.70;;;;;;5055321;28;20504;-78
2023/11/30 06:43:03;;;;;;;4.37;3.97;;;11.30;56.70;;;;;;5053321;28;20539;-78
2023/11/30 06:45:31;;;;;;;5.57;4.17;;;11.30;56.50;;;;;;5050553;28;20561;-77
2023/11/30 06:47:59;;;;;;;5.93;4.40;;;11.30;56.60;;;;;;5042589;28;20453;-78
2023/11/30 06:50:27;;;;;;;6.57;4.50;;;11.30;56.50;;;;;;5038927;28;20447;-79
2023/11/30 06:52:56;;;;;;;4.30;3.73;;;11.20;56.50;;;;;;5041629;28;20490;-78
2023/11/30 06:55:23;;;;;;;4.90;4.40;;;11.20;56.50;;;;;;5049305;28;20542;-79
2023/11/30 06:57:51;;;;;;;3.90;3.60;;;11.20;56.50;;;;;;5051656;28;20511;-77
2023/11/30 07:00:21;;;;;;;6.03;3.80;;;11.20;56.50;;;;;;5051365;28;20462;-78
2023/11/30 07:02:49;;;;;;;4.30;3.90;;;11.20;56.50;;;;;;5052321;28;20462;-79
2023/11/30 07:05:17;;;;;;;4.30;3.90;;;11.20;56.50;;;;;;5051428;28;20466;-79
2023/11/30 07:07:45;;;;;;;4.43;3.80;;;11.20;56.40;;;;;;5052792;28;20537;-79
2023/11/30 07:10:14;;;;;;;4.47;3.80;;;11.20;56.30;;;;;;5056145;28;20470;-79
2023/11/30 07:12:42;;;;;;;4.33;3.90;;;11.20;56.40;;;;;;5055712;28;20941;-79
2023/11/30 07:15:11;;;;;;;6.10;4.27;;;11.20;56.40;;;;;;5056148;28;20712;-79
2023/11/30 07:17:40;;;;;;;4.17;3.77;;;11.20;56.40;;;;;;5055980;28;20450;-79
2023/11/30 07:20:09;;;;;;;4.70;4.00;;;11.10;56.20;;;;;;5056036;28;20442;-79
2023/11/30 07:22:37;;;;;;;3.97;3.57;;;11.20;56.40;;;;;;5055193;28;20434;-79
2023/11/30 07:25:06;;;;;;;4.57;4.10;;;11.20;56.30;;;;;;5055645;28;20462;-78
2023/11/30 07:27:35;;;;;;;4.40;4.00;;;11.10;56.00;;;;;;5055101;28;20492;-78
2023/11/30 07:30:02;;;;;;;4.77;4.00;;;11.10;56.00;;;;;;5055079;28;20817;-78
2023/11/30 07:32:31;;;;;;;5.17;4.20;;;11.10;56.00;;;;;;5055395;28;20439;-79
2023/11/30 07:35:00;;;;;;;4.90;4.17;;;11.10;56.00;;;;;;5055484;28;20415;-79
2023/11/30 07:37:28;;;;;;;4.50;4.03;;;11.10;56.00;;;;;;5050314;28;20473;-76
2023/11/30 07:39:56;;;;;;;4.77;3.87;;;11.00;56.00;;;;;;5055013;28;20529;-79
2023/11/30 07:42:24;;;;;;;5.43;4.30;;;11.10;56.00;;;;;;5055338;28;20534;-79
2023/11/30 07:45:04;;;;;;;3.93;3.57;;;11.00;55.90;;;;;;5055410;28;20469;-78
2023/11/30 07:47:33;;;;;;;4.37;3.97;;;11.00;55.80;;;;;;5055223;28;20470;-77
2023/11/30 07:50:02;;;;;;;4.40;3.67;;;11.10;56.00;;;;;;5055074;28;20442;-79
2023/11/30 07:52:31;;;;;;;5.10;4.13;;;11.10;55.90;;;;;;5055000;28;20450;-79
2023/11/30 07:54:59;;;;;;;3.93;3.50;;;11.10;55.90;;;;;;5054971;28;20446;-78
2023/11/30 07:57:29;;;;;;;4.40;4.00;;;11.10;55.90;;;;;;5055060;28;20469;-77
2023/11/30 07:59:57;;;;;;;4.30;3.90;;;11.00;55.80;;;;;;5054998;28;20454;-79
2023/11/30 08:02:25;;;;;;;4.97;4.40;;;11.00;55.80;;;;;;5048991;28;20474;-81
2023/11/30 08:04:53;;;;;;;5.67;4.50;;;11.00;55.50;;;;;;5057367;28;20473;-80
2023/11/30 08:07:23;;;;;;;4.53;4.03;;;11.00;56.00;;;;;;5049224;28;20566;-78
2023/11/30 08:09:51;;;;;;;7.37;4.83;;;11.00;55.70;;;;;;5050581;28;20518;-81
2023/11/30 08:12:19;;;;;;;4.80;3.87;;;11.00;55.60;;;;;;5055180;28;20502;-80
2023/11/30 08:14:47;;;;;;;5.60;4.23;;;11.00;55.70;;;;;;5047150;28;20470;-79
2023/11/30 08:17:15;;;;;;;5.10;4.17;;;11.00;55.50;;;;;;5054789;28;20470;-79
2023/11/30 08:19:43;;;;;;;5.00;3.90;;;11.00;55.40;;;;;;5044575;28;20502;-80
2023/11/30 08:22:10;;;;;;;4.73;4.10;;;11.00;55.50;;;;;;5049687;28;20430;-80
2023/11/30 08:24:42;;;;;;;4.90;4.40;;;11.00;55.40;;;;;;5044109;28;20454;-79
2023/11/30 08:27:10;;;;;;;5.70;4.63;;;11.00;55.40;;;;;;5047720;28;20498;-81
2023/11/30 08:29:39;;;;;;;6.63;4.37;;;11.00;55.40;;;;;;5049038;28;20442;-80
2023/11/30 08:32:07;;;;;;;4.90;4.10;;;11.00;55.40;;;;;;5055157;28;20485;-79
2023/11/30 08:34:35;;;;;;;4.73;4.20;;;11.00;55.40;;;;;;5040822;28;20467;-79
2023/11/30 08:37:04;;;;;;;5.77;4.47;;;11.00;55.40;;;;;;5052287;28;20495;-79
2023/11/30 08:39:32;;;;;;;6.60;4.60;;;11.00;55.20;;;;;;5043556;28;20482;-78
2023/11/30 08:42:01;;;;;;;7.97;5.07;;;10.90;55.20;;;;;;5046085;28;20482;-79
2023/11/30 08:44:30;;;;;;;6.47;4.87;;;10.90;55.30;;;;;;5053007;28;20463;-78
2023/11/30 08:46:58;;;;;;;7.13;5.03;;;10.90;55.30;;;;;;5054991;28;20547;-78
2023/11/30 08:49:26;;;;;;;7.80;5.40;;;11.00;55.40;;;;;;5054389;28;20435;-79
2023/11/30 08:51:54;;;;;;;6.90;4.67;;;11.00;55.30;;;;;;5049345;28;20443;-76
2023/11/30 08:54:23;;;;;;;8.80;5.10;;;11.00;55.30;;;;;;5053823;28;20455;-79
2023/11/30 08:56:54;;;;;;;10.57;5.23;;;11.00;55.40;;;;;;5053726;28;20441;-79
2023/11/30 08:59:23;;;;;;;7.57;5.00;;;11.00;55.10;;;;;;5056353;28;20447;-80
2023/11/30 09:01:51;;;;;;;7.60;5.30;;;11.00;55.30;;;;;;5054343;28;20498;-78
2023/11/30 09:04:19;;;;;;;7.17;4.93;;;11.00;55.50;;;;;;5054142;28;20817;-79
2023/11/30 09:06:47;;;;;;;9.20;5.33;;;11.00;55.40;;;;;;5053103;28;20572;-79
2023/11/30 09:09:15;;;;;;;8.00;5.80;;;11.00;55.40;;;;;;5053883;28;20443;-81
2023/11/30 09:11:44;;;;;;;8.80;5.80;;;11.00;55.40;;;;;;5055595;28;20447;-80
2023/11/30 09:14:12;;;;;;;8.73;5.23;;;11.00;55.40;;;;;;5055747;28;20497;-80
2023/11/30 09:16:42;;;;;;;10.03;5.57;;;11.00;55.50;;;;;;5055837;28;20502;-80
2023/11/30 09:19:10;;;;;;;9.73;6.13;;;11.00;55.40;;;;;;5056051;28;20492;-78
2023/11/30 09:21:41;;;;;;;11.40;6.27;;;11.10;55.60;;;;;;5053896;28;20470;-78
2023/11/30 09:24:10;;;;;;;11.20;6.17;;;11.10;55.40;;;;;;5053391;28;21060;-79
2023/11/30 09:26:38;;;;;;;13.53;7.10;;;11.10;55.40;;;;;;5053748;28;20475;-78
2023/11/30 09:29:10;;;;;;;10.80;6.10;;;11.10;55.50;;;;;;5053736;28;20419;-79
2023/11/30 09:31:41;;;;;;;12.20;6.33;;;11.10;55.50;;;;;;5052886;28;20443;-79
2023/11/30 09:34:10;;;;;;;10.47;6.07;;;11.10;55.50;;;;;;5052919;28;20470;-78
2023/11/30 09:36:39;;;;;;;10.67;6.20;;;11.10;55.60;;;;;;5053594;28;20438;-78
2023/11/30 09:39:08;;;;;;;11.33;6.67;;;11.20;55.60;;;;;;5053333;28;20442;-79
2023/11/30 09:41:38;;;;;;;12.77;7.07;;;11.20;55.50;;;;;;5053142;28;20461;-78
2023/11/30 09:44:06;;;;;;;11.10;5.87;;;11.10;55.40;;;;;;5052949;28;20985;-79
2023/11/30 09:46:33;;;;;;;10.30;6.93;;;11.10;55.40;;;;;;5053006;28;20502;-79
2023/11/30 09:49:04;;;;;;;13.17;7.00;;;11.20;55.50;;;;;;5053208;28;20438;-79
2023/11/30 09:51:35;;;;;;;14.97;6.90;;;11.20;55.40;;;;;;5052514;28;20430;-77
2023/11/30 09:54:03;;;;;;;12.60;7.37;;;11.20;55.40;;;;;;5052471;28;20486;-79
2023/11/30 09:56:31;;;;;;;12.37;6.97;;;11.20;55.60;;;;;;5052758;28;20446;-79
2023/11/30 09:58:59;;;;;;;12.83;7.40;;;11.20;55.50;;;;;;5052986;28;20481;-78
2023/11/30 10:01:26;;;;;;;12.00;7.13;;;11.20;55.50;;;;;;5052730;28;20503;-79
2023/11/30 10:03:55;;;;;;;13.10;7.30;;;11.20;55.50;;;;;;5050699;28;20454;-80
2023/11/30 10:06:25;;;;;;;14.50;7.33;;;11.20;55.50;;;;;;5029285;28;20452;-79
2023/11/30 10:08:53;;;;;;;16.10;7.70;;;11.20;55.40;;;;;;5039213;28;20453;-77
2023/11/30 10:11:21;;;;;;;13.90;7.77;;;11.20;55.50;;;;;;5053804;28;20446;-80
2023/11/30 10:13:50;;;;;;;55.43;20.87;;;11.20;55.50;;;;;;5048387;28;20472;-78
2023/11/30 10:16:18;;;;;;;52.77;21.47;;;9.60;47.90;;;;;;5048416;28;20456;-78
2023/11/30 10:18:46;;;;;;;56.13;21.60;;;8.10;51.30;;;;;;5043957;28;20940;-78
2023/11/30 10:21:15;;;;;;;55.23;20.83;;;6.60;53.10;;;;;;5051695;28;20458;-76
2023/11/30 10:23:46;;;;;;;56.43;21.80;;;6.10;54.80;;;;;;5051963;28;20529;-76
2023/11/30 10:26:14;;;;;;;63.03;23.40;;;5.30;54.40;;;;;;5050659;28;20439;-77
2023/11/30 10:28:42;;;;;;;55.50;21.30;;;5.00;57.30;;;;;;5044845;28;20505;-77
2023/11/30 10:31:10;;;;;;;57.43;21.93;;;4.60;57.40;;;;;;5047987;28;20473;-77
2023/11/30 10:33:40;;;;;;;60.10;22.30;;;4.70;58.60;;;;;;5043918;28;20557;-77
2023/11/30 10:36:09;;;;;;;60.63;22.90;;;4.60;57.80;;;;;;5059120;22;22158;-78
2023/11/30 10:38:37;;;;;;;62.80;24.30;;;4.30;58.50;;;;;;5035238;28;20466;-78
2023/11/30 10:41:10;;;;;;;68.87;22.90;;;3.50;59.50;;;;;;5046764;28;20473;-77
2023/11/30 10:43:38;;;;;;;51.80;21.50;;;3.60;61.50;;;;;;5051969;28;20498;-78
2023/11/30 10:46:08;;;;;;;52.03;19.43;;;4.30;62.90;;;;;;5060490;28;20506;-82
2023/11/30 10:48:37;;;;;;;46.07;18.80;;;5.00;65.40;;;;;;5061304;28;20462;-81
2023/11/30 10:51:13;;;;;;;40.40;17.80;;;5.90;63.80;;;;;;5044878;28;20447;-80
2023/11/30 10:53:55;;;;;;;44.03;18.17;;;6.70;61.30;;;;;;5042969;28;20450;-80
2023/11/30 10:56:26;;;;;;;40.23;15.10;;;7.20;59.10;;;;;;5056359;28;20484;-80
2023/11/30 10:58:55;;;;;;;31.90;13.60;;;7.50;56.50;;;;;;5036376;28;20449;-78
2023/11/30 11:01:26;;;;;;;36.13;15.17;;;7.70;56.30;;;;;;5047443;28;20457;-79
2023/11/30 11:03:56;;;;;;;30.53;13.90;;;8.00;56.00;;;;;;5037511;28;20453;-79
2023/11/30 11:06:25;;;;;;;30.37;13.53;;;8.30;55.10;;;;;;5056872;28;20521;-79
2023/11/30 11:09:00;;;;;;;29.50;12.60;;;8.50;54.50;;;;;;5041601;28;20465;-79
2023/11/30 11:11:30;;;;;;;27.33;12.43;;;8.70;54.20;;;;;;5046339;28;20820;-79
2023/11/30 11:13:58;;;;;;;28.83;12.83;;;8.90;53.90;;;;;;5057799;28;20442;-78
2023/11/30 11:16:36;;;;;;;24.60;12.23;;;8.80;53.10;;;;;;5052523;28;20556;-78
2023/11/30 11:19:05;;;;;;;27.00;12.67;;;8.90;53.10;;;;;;5050784;28;20462;-79
2023/11/30 11:21:36;;;;;;;22.40;11.80;;;9.00;52.90;;;;;;5051569;28;20447;-80
2023/11/30 11:24:05;;;;;;;23.30;10.80;;;9.00;52.80;;;;;;5049669;28;20446;-82
2023/11/30 11:26:44;;;;;;;22.00;11.10;;;9.10;52.90;;;;;;5049432;28;20462;-81
2023/11/30 11:29:13;;;;;;;24.70;10.37;;;9.20;52.60;;;;;;5047479;28;20515;-82
2023/11/30 11:31:43;;;;;;;19.80;9.70;;;9.20;51.90;;;;;;5044877;28;20462;-82
2023/11/30 11:34:11;;;;;;;22.17;10.50;;;9.20;52.50;;;;;;5048991;28;20426;-82
2023/11/30 11:36:39;;;;;;;17.73;8.73;;;9.10;51.80;;;;;;5050503;28;20455;-82
2023/11/30 11:39:10;;;;;;;23.53;12.20;;;9.00;52.70;;;;;;5060347;28;20439;-82
2023/11/30 11:41:39;;;;;;;36.43;17.13;;;9.10;52.40;;;;;;5057289;28;20435;-82
2023/11/30 11:44:09;;;;;;;33.97;17.20;;;9.10;52.50;;;;;;5055142;28;20542;-83
2023/11/30 11:46:39;;;;;;;31.10;15.30;;;9.10;52.20;;;;;;5045827;28;20466;-81
2023/11/30 11:49:10;;;;;;;41.93;18.63;;;9.10;52.70;;;;;;5050673;28;20478;-83
2023/11/30 11:51:46;;;;;;;37.30;15.27;;;9.20;52.80;;;;;;5044755;28;20442;-82
2023/11/30 11:54:18;;;;;;;27.47;13.97;;;9.30;52.40;;;;;;5045128;28;20462;-83
2023/11/30 11:56:47;;;;;;;26.07;12.60;;;9.40;52.10;;;;;;5039226;28;20582;-83
2023/11/30 11:59:22;;;;;;;23.93;12.53;;;9.10;51.90;;;;;;5046204;28;20434;-81
2023/11/30 12:01:53;;;;;;;24.20;12.60;;;9.10;52.30;;;;;;5045233;28;20435;-82
2023/11/30 12:04:31;;;;;;;27.20;13.47;;;9.20;52.90;;;;;;5050370;28;20442;-82
2023/11/30 12:10:10;;;;;;;24.20;12.77;;;9.40;52.50;;;;;;5021154;28;20450;-82
2023/11/30 12:16:44;;;;;;;18.33;9.67;;;9.60;52.10;;;;;;5059719;28;20464;-82
2023/11/30 12:19:22;;;;;;;19.60;10.17;;;9.50;51.90;;;;;;5048868;28;20444;-80
2023/11/30 12:22:04;;;;;;;21.63;10.60;;;9.40;51.60;;;;;;5047381;28;20452;-81
2023/11/30 12:24:47;;;;;;;22.57;11.50;;;9.30;51.60;;;;;;5055709;28;20456;-81
2023/11/30 12:30:50;;;;;;;19.93;10.90;;;9.50;52.20;;;;;;5044928;28;20451;-81
2023/11/30 12:33:36;;;;;;;18.87;10.30;;;9.60;52.00;;;;;;5047844;28;20443;-79
2023/11/30 12:36:09;;;;;;;22.00;10.83;;;9.70;52.00;;;;;;5066198;28;20496;-81
2023/11/30 12:38:49;;;;;;;22.23;11.97;;;9.60;51.80;;;;;;5065918;28;20470;-80
2023/11/30 12:41:26;;;;;;;22.40;11.23;;;9.70;52.00;;;;;;5065699;28;20481;-79
2023/11/30 12:44:03;;;;;;;21.40;11.80;;;9.70;51.90;;;;;;5068981;28;20439;-81
2023/11/30 12:46:34;;;;;;;20.53;11.00;;;9.80;51.80;;;;;;5052022;28;20462;-81
2023/11/30 12:49:09;;;;;;;18.83;9.90;;;9.80;52.00;;;;;;5052435;28;20473;-83
2023/11/30 12:51:46;;;;;;;14.73;8.93;;;9.80;51.60;;;;;;5049852;28;20494;-81
2023/11/30 12:54:22;;;;;;;17.37;9.53;;;9.60;51.20;;;;;;5054173;28;20451;-81
2023/11/30 12:56:57;;;;;;;17.47;9.57;;;9.50;51.20;;;;;;5051400;28;20467;-80
2023/11/30 12:59:31;;;;;;;18.27;9.90;;;9.40;52.20;;;;;;5041073;28;20447;-80
2023/11/30 13:02:16;;;;;;;19.00;9.97;;;9.40;52.00;;;;;;5041648;28;21022;-81
2023/11/30 13:05:06;;;;;;;14.93;8.83;;;9.50;52.20;;;;;;5039896;28;20447;-81